Downstream station:
SHEF ID: LSGM7 Little Sugar Creek near Pinevill
STATION TYPE:
PRECIP STAGE STAGE(2) RIV-FLOW VOLTAGE
in ft ft cfs volt
Ccp-Rev Ccp-Rev Ccp-Rev Ccp-Rev Ccp-Rev
(US/Central)
04/06 00:00 0.00 4.09 4.08 400 12.71
04/06 01:00 0.00 4.08 4.06 397 12.71
04/06 02:00 0.00 4.06 4.06 390 12.71
04/06 03:00 0.00 4.09 4.06 400 12.71
04/06 04:00 0.00 4.06 4.06 390 12.71
04/06 05:00 0.00 4.09 4.05 400 12.47
04/06 06:00 0.00 4.04 4.05 383 12.47
04/06 07:00 0.00 4.08 4.04 397 12.47
04/06 08:00 0.00 4.05 4.04 387 12.47
04/06 09:00 0.00 4.03 4.04 380 12.71
04/06 10:00 0.00 4.00 4.04 370 12.71
04/06 11:00 0.00 4.03 4.04 380 12.71
04/06 12:00 0.00 4.12 4.03 411 12.94
04/06 13:00 0.00 4.03 4.03 380 13.64
04/06 14:00 0.00 4.04 4.04 383 13.41
04/06 15:00 0.00 4.02 4.02 377 13.64
04/06 16:00 0.00 4.00 4.00 370 13.41
04/06 17:00 0.00 4.00 4.00 370 13.64
04/06 18:00 0.00 4.02 4.02 377 13.64
04/06 19:00 0.00 4.04 4.01 383 13.17
04/06 20:00 0.00 4.02 4.02 377 12.94
04/06 21:00 0.00 4.01 4.01 373 12.71
04/06 22:00 0.00 4.01 4.01 373 12.71
04/06 23:00 0.00 4.00 3.99 370 12.71